Flight Track Log - Related Links

Times and Time Zones

All times are in EST time to prevent confusion due to time zone crossing. See the TAM8005 flight status page for this flight to view local times or setup timezone preferences in your user account.

Time Position Orientation Groundspeed Altitude Reporting Facility
EST Latitude Longitude Course Direction KTS MPH feet Rate Location/Type
Tue 01:41:00 PM -32.9989 -56.4902 46° Northeast  Level Estimated
Tue 01:42:00 PM -32.9273 -56.4044 45° Northeast  Level Estimated
Tue 01:43:00 PM -32.8556 -56.3186 45° Northeast  Level Estimated
Tue 01:44:00 PM -32.7839 -56.2331 45° Northeast  Level Estimated
Tue 01:45:00 PM -32.7121 -56.1476 45° Northeast  Level Estimated
Tue 01:46:00 PM -32.6402 -56.0623 45° Northeast  Level Estimated
Tue 01:47:00 PM -32.5683 -55.9771 45° Northeast  Level Estimated
Tue 01:48:00 PM -32.4963 -55.8921 45° Northeast  Level Estimated
Tue 01:49:00 PM -32.4243 -55.8071 45° Northeast  Level Estimated
Tue 01:50:00 PM -32.3522 -55.7224 45° Northeast  Level Estimated
Tue 01:51:00 PM -32.2801 -55.6377 45° Northeast  Level Estimated
Tue 01:52:00 PM -32.2079 -55.5532 45° Northeast  Level Estimated
Tue 01:53:00 PM -32.1357 -55.4689 45° Northeast  Level Estimated
Tue 01:54:00 PM -32.0634 -55.3846 45° Northeast  Level Estimated
Tue 01:55:00 PM -31.9910 -55.3005 45° Northeast  Level Estimated
Tue 01:56:00 PM -31.9186 -55.2165 45° Northeast  Level Estimated
Tue 01:57:00 PM -31.8461 -55.1327 45° Northeast  Level Estimated
Tue 01:58:00 PM -31.7736 -55.0490 44° Northeast  Level Estimated
Tue 01:59:00 PM -31.7010 -54.9654 44° Northeast  Level Estimated
Tue 02:00:00 PM -31.6283 -54.8820 44° Northeast  Level Estimated
Tue 02:01:00 PM -31.5557 -54.7986 44° Northeast  Level Estimated
Tue 02:02:00 PM -31.4829 -54.7155 44° Northeast  Level Estimated
Tue 02:03:00 PM -31.4101 -54.6324 44° Northeast  Level Estimated
Tue 02:04:00 PM -31.3373 -54.5495 44° Northeast  Level Estimated
Tue 02:05:00 PM -31.2644 -54.4667 44° Northeast  Level Estimated
Tue 02:06:00 PM -31.1914 -54.3840 44° Northeast  Level Estimated
Tue 02:07:00 PM -31.1184 -54.3015 44° Northeast  Level Estimated
Tue 02:08:00 PM -31.0453 -54.2190 44° Northeast  Level Estimated
Tue 02:09:00 PM -30.9722 -54.1367 44° Northeast  Level Estimated
Tue 02:10:00 PM -30.8990 -54.0546 44° Northeast  Level Estimated
Tue 02:11:00 PM -30.8258 -53.9725 44° Northeast  Level Estimated
Tue 02:12:00 PM -30.7526 -53.8906 44° Northeast  Level Estimated
Tue 02:13:00 PM -30.6792 -53.8088 44° Northeast  Level Estimated
Tue 02:14:00 PM -30.6059 -53.7272 44° Northeast  Level Estimated
Tue 02:15:00 PM -30.5324 -53.6456 44° Northeast  Level Estimated
Tue 02:16:00 PM -30.4590 -53.5642 44° Northeast  Level Estimated
Tue 02:17:00 PM -30.3854 -53.4829 44° Northeast  Level Estimated
Tue 02:18:00 PM -30.3118 -53.4018 44° Northeast  Level Estimated
Tue 02:19:00 PM -30.2382 -53.3207 44° Northeast  Level Estimated
Tue 02:20:00 PM -30.1645 -53.2398 44° Northeast  Level Estimated
Tue 02:21:00 PM -30.0908 -53.1590 43° Northeast  Level Estimated
Tue 02:22:00 PM -30.0170 -53.0783 43° Northeast  Level Estimated
Tue 02:23:00 PM -29.9432 -52.9977 43° Northeast  Level Estimated
Tue 02:24:00 PM -29.8694 -52.9173 43° Northeast  Level Estimated
Tue 02:25:00 PM -29.7954 -52.8369 43° Northeast  Level Estimated
Tue 02:26:00 PM -29.7215 -52.7567 43° Northeast  Level Estimated
Tue 02:27:00 PM -29.6474 -52.6766 43° Northeast  Level Estimated
Tue 02:28:00 PM -29.5734 -52.5967 43° Northeast  Level Estimated
Tue 02:29:00 PM -29.4993 -52.5168 43° Northeast  Level Estimated
Tue 02:30:00 PM -29.4251 -52.4371 43° Northeast  Level Estimated
Tue 02:31:00 PM -29.3509 -52.3574 43° Northeast  Level Estimated
Tue 02:32:00 PM -29.2766 -52.2779 43° Northeast  Level Estimated
Tue 02:33:00 PM -29.2023 -52.1985 43° Northeast  Level Estimated
Tue 02:34:00 PM -29.1280 -52.1193 43° Northeast  Level Estimated
Tue 02:35:00 PM -29.0536 -52.0401 43° Northeast  Level Estimated
Tue 02:36:00 PM -28.9791 -51.9610 43° Northeast  Level Estimated
Tue 02:37:00 PM -28.9046 -51.8821 43° Northeast  Level Estimated
Tue 02:38:00 PM -28.8301 -51.8033 43° Northeast  Level Estimated
Tue 02:39:00 PM -28.7555 -51.7246 43° Northeast  Level Estimated
Tue 02:40:00 PM -28.6809 -51.6460 43° Northeast  Level Estimated
Tue 02:41:00 PM -28.6062 -51.5675 43° Northeast  Level Estimated
Tue 02:42:00 PM -28.5315 -51.4891 43° Northeast  Level Estimated
Tue 02:43:00 PM -28.4568 -51.4109 43° Northeast  Level Estimated
Tue 02:44:00 PM -28.3819 -51.3327 43° Northeast  Level Estimated
Tue 02:45:00 PM -28.3071 -51.2547 43° Northeast  Level Estimated
Tue 02:46:00 PM -28.2322 -51.1767 43° Northeast  Level Estimated
Tue 02:47:00 PM -28.1572 -51.0989 42° Northeast  Level Estimated
Tue 02:48:00 PM -28.0823 -51.0212 42° Northeast  Level Estimated
Tue 02:49:00 PM -28.0072 -50.9436 42° Northeast  Level Estimated
Tue 02:50:00 PM -27.9322 -50.8661 42° Northeast  Level Estimated
Tue 02:51:00 PM -27.8571 -50.7887 42° Northeast  Level Estimated
Tue 02:52:00 PM -27.7819 -50.7114 42° Northeast  Level Estimated
Tue 02:53:00 PM -27.7067 -50.6343 42° Northeast  Level Estimated
Tue 02:54:00 PM -27.6315 -50.5572 42° Northeast  Level Estimated
Tue 02:55:00 PM -27.5562 -50.4802 42° Northeast  Level Estimated
Tue 02:56:00 PM -27.4808 -50.4034 42° Northeast  Level Estimated
Tue 02:57:00 PM -27.4055 -50.3266 42° Northeast  Level Estimated
Tue 02:58:00 PM -27.3301 -50.2500 42° Northeast  Level Estimated
Tue 02:59:00 PM -27.2546 -50.1734 42° Northeast  Level Estimated
Tue 03:00:00 PM -27.1791 -50.0970 42° Northeast  Level Estimated
Tue 03:01:00 PM -27.1036 -50.0206 42° Northeast  Level Estimated
Tue 03:02:00 PM -27.0280 -49.9444 42° Northeast  Level Estimated
Tue 03:03:00 PM -26.9524 -49.8683 42° Northeast  Level Estimated
Tue 03:04:00 PM -26.8767 -49.7923 42° Northeast  Level Estimated
Tue 03:05:00 PM -26.8010 -49.7163 42° Northeast  Level Estimated
Tue 03:06:00 PM -26.7253 -49.6405 42° Northeast  Level Estimated
Tue 03:07:00 PM -26.6495 -49.5648 42° Northeast  Level Estimated
Tue 03:08:00 PM -26.5737 -49.4892 42° Northeast  Level Estimated
Tue 03:09:00 PM -26.4978 -49.4136 42° Northeast  Level Estimated
Tue 03:10:00 PM -26.4219 -49.3382 42° Northeast  Level Estimated
Tue 03:11:00 PM -26.3460 -49.2629 42° Northeast  Level Estimated
Tue 03:12:00 PM -26.2700 -49.1876 42° Northeast  Level Estimated
Tue 03:13:00 PM -26.1940 -49.1125 42° Northeast  Level Estimated
Tue 03:14:00 PM -26.1179 -49.0375 42° Northeast  Level Estimated
Tue 03:15:00 PM -26.0418 -48.9626 42° Northeast  Level Estimated
Tue 03:16:00 PM -25.9657 -48.8877 41° Northeast  Level Estimated
Tue 03:17:00 PM -25.8895 -48.8130 41° Northeast  Level Estimated
Tue 03:18:00 PM -25.8133 -48.7383 41° Northeast  Level Estimated
Tue 03:19:00 PM -25.7370 -48.6638 41° Northeast  Level Estimated
Tue 03:20:00 PM -25.6608 -48.5893 41° Northeast  Level Estimated
Tue 03:21:00 PM -25.5844 -48.5150 41° Northeast  Level Estimated
Tue 03:22:00 PM -25.5081 -48.4407 41° Northeast  Level Estimated
Tue 03:23:00 PM -25.4317 -48.3666 41° Northeast  Level Estimated
Tue 03:24:00 PM -25.3552 -48.2925 41° Northeast  Level Estimated
Tue 03:25:00 PM -25.2788 -48.2185 41° Northeast  Level Estimated
Tue 03:26:00 PM -25.2022 -48.1446 41° Northeast  Level Estimated
Tue 03:27:00 PM -25.1257 -48.0708 41° Northeast  Level Estimated
Tue 03:28:00 PM -25.0491 -47.9971 41° Northeast  Level Estimated
Tue 03:29:00 PM -24.9725 -47.9235 41° Northeast  Level Estimated
Tue 03:30:00 PM -24.8958 -47.8500 41° Northeast  Level Estimated
Tue 03:31:00 PM -24.8192 -47.7766 41° Northeast  Level Estimated
Tue 03:32:00 PM -24.7424 -47.7033 41° Northeast  Level Estimated
Tue 03:33:00 PM -24.6657 -47.6300 41° Northeast  Level Estimated
Tue 03:34:00 PM -24.5889 -47.5569 41° Northeast  Level Estimated
Tue 03:35:00 PM -24.5120 -47.4838 41° Northeast  Level Estimated
Tue 03:36:00 PM -24.4352 -47.4108 41° Northeast  Level Estimated
Tue 03:37:00 PM -24.3582 -47.3379 41° Northeast  Level Estimated
Tue 03:38:00 PM -24.2813 -47.2651 41° Northeast  Level Estimated
Tue 03:39:00 PM -24.2043 -47.1924 41° Northeast  Level Estimated
Tue 03:40:00 PM -24.1273 -47.1198 41° Northeast  Level Estimated
Tue 03:41:00 PM -24.0503 -47.0473 41° Northeast  Level Estimated
Tue 03:42:00 PM -23.9732 -46.9748 41° Northeast  Level Estimated
Tue 03:43:00 PM -23.8961 -46.9025 41° Northeast  Level Estimated
Tue 03:44:00 PM -23.8190 -46.8302 41° Northeast  Level Estimated
Tue 03:45:00 PM -23.7418 -46.7580 41° Northeast  Level Estimated
Tue 03:46:00 PM -23.6646 -46.6859 41° Northeast  Level Estimated
Tue 03:47:00 PM -23.5873 -46.6139 41° Northeast  Level Estimated
Tue 03:48:00 PM -23.5100 -46.5420 40° Northeast  Level Estimated
Tue 03:49:00 PM -23.4327 -46.4701 40° Northeast  Level Estimated
Tue 03:50:00 PM -23.4321 -46.4695 40° Northeast  Level Estimated
Tue 03:51:00 PM -23.4321 -46.4695 350° North  Level Estimated
Tue 03:52:00 PM -23.4321 -46.4695 350° North  Level Estimated
Tue 03:53:00 PM -23.4321 -46.4695 350° North  Level Estimated
Tue 03:54:00 PM -23.4321 -46.4695 350° North  Level Estimated
Tue 03:55:00 PM -23.4321 -46.4695 350° North  Level Estimated
Tue 03:56:00 PM -23.4321 -46.4695 350° North  Level Estimated
Tue 03:57:00 PM -23.4321 -46.4695 350° North  Level Estimated
Tue 03:58:00 PM -23.4321 -46.4695 350° North  Level Estimated
Tue 03:59:00 PM -23.4321 -46.4695 350° North  Level Estimated
Tue 04:00:00 PM -23.4321 -46.4695 350° North  Level Estimated
Tue 04:01:00 PM -23.4321 -46.4695 350° North  Level Estimated
Tue 04:02:00 PM -23.4321 -46.4695 350° North  Level Estimated
Tue 04:03:00 PM -23.4321 -46.4695 350° North  Level Estimated
Tue 04:04:00 PM -23.4321 -46.4695 350° North  Level Estimated
Tue 04:05:00 PM -23.4321 -46.4695 350° North  Level Estimated

Login

Don't have an account? Register now (free) for customized features, flight alerts, and more!